Morton S. Bouchard Jr. — WDI5331 — position and weather

sailwx.info

Track history (hours):
 
Tides and Currents Weather Stations Pressure Air Temp Water Temp Dewpoint Dewpoint Depression Visibility Wind Speed Wind Dir Waves Ship Positions

Morton S. Bouchard Jr.

Owner: Tug Morton S. Bouchard Jr. Corp., Melville, NY. More information available from US FCC via Universal Licensing System and Coast Guard Vessel Documentation Center.

Last reported at 2018-Feb-18 08:59 UTC. Time now 2018-Feb-18 09:14 UTC.
Position N 40°48' W 073°50'.

Length 156 m; draft 6.4 m.

MMSI: 367707480.

Date/timePositionNaut miles runAvg speedWind from/ knotsBaromVisibWave heightAir tempDewpointWater temp
2018-Feb-18 08:59N 40°48' W 073°50'2 4.6
2018-Feb-18 08:30N 40°49' W 073°47'0 0.0
2018-Feb-16 09:32N 40°49' W 073°47'1 9.2
2018-Feb-16 09:27N 40°48' W 073°47'4 9.3
2018-Feb-16 09:00N 40°48' W 073°53'3 6.6
2018-Feb-16 08:29N 40°46' W 073°57'3 6.3
2018-Feb-16 08:01N 40°44' W 073°58'3 6.1
2018-Feb-16 07:30N 40°41' W 074°01'2 4.8
2018-Feb-16 07:01N 40°39' W 074°03'0 0.1
2018-Feb-16 06:29N 40°39' W 074°03'0 0.1
2018-Feb-16 05:59N 40°39' W 074°03'0 0.1
2018-Feb-16 05:29N 40°39' W 074°03'0 0.0
2018-Feb-16 04:59N 40°39' W 074°03'0 0.0
2018-Feb-16 04:29N 40°39' W 074°03'0 0.0
2018-Feb-16 03:59N 40°39' W 074°03'0 0.9
2018-Feb-16 03:30N 40°39' W 074°03'5 9.6
2018-Feb-16 03:00N 40°39' W 074°09'3 6.4
2018-Feb-16 02:30N 40°36' W 074°12'1 1.6
2018-Feb-16 01:59N 40°35' W 074°12'0 0.0
2018-Feb-16 01:29N 40°35' W 074°12'3 5.3
2018-Feb-16 01:00N 40°38' W 074°12'3 5.1
2018-Feb-16 00:30N 40°39' W 074°09'1 0.3
2018-Feb-15 20:14N 40°39' W 074°07'1 1.7
2018-Feb-15 19:44N 40°39' W 074°06'0 0.0
2018-Feb-15 19:29N 40°39' W 074°06'0 0.0
2018-Feb-15 18:59N 40°39' W 074°06'0 0.0
2018-Feb-15 18:29N 40°39' W 074°06'0 0.0
2018-Feb-15 17:59N 40°39' W 074°06'0 0.0
2018-Feb-15 17:26N 40°39' W 074°06'0 0.0
2018-Feb-15 16:56N 40°39' W 074°06'0 0.0
2018-Feb-15 16:02N 40°39' W 074°06'0 0.0
2018-Feb-15 15:50N 40°39' W 074°06'0 0.0
2018-Feb-15 15:23N 40°39' W 074°06'0 0.0
2018-Feb-15 14:59N 40°39' W 074°06'0 0.0
2018-Feb-15 14:26N 40°39' W 074°06'0 0.0
2018-Feb-15 13:59N 40°39' W 074°06'0 0.0
2018-Feb-15 13:29N 40°39' W 074°06'0 0.0
2018-Feb-15 12:53N 40°39' W 074°06'0 0.0
2018-Feb-15 12:26N 40°39' W 074°06'0 0.0
2018-Feb-15 12:00N 40°39' W 074°06'0 0.6
2018-Feb-15 11:21N 40°39' W 074°05'0 0.0
2018-Feb-15 10:57N 40°39' W 074°05'0 0.0
2018-Feb-15 10:27N 40°39' W 074°05'0 0.0
2018-Feb-15 09:57N 40°39' W 074°05'0 0.0
2018-Feb-15 09:30N 40°39' W 074°05'0 0.0
2018-Feb-15 08:51N 40°39' W 074°05'0 0.0
2018-Feb-15 08:30N 40°39' W 074°05'0 0.0
2018-Feb-15 07:57N 40°39' W 074°05'0 0.0
2018-Feb-15 07:27N 40°39' W 074°05'0 0.0
2018-Feb-15 07:00N 40°39' W 074°05'0 0.0
2018-Feb-15 06:24N 40°39' W 074°05'0 0.0
2018-Feb-15 05:57N 40°39' W 074°05'0 0.0
2018-Feb-15 05:18N 40°39' W 074°05'0 0.0
2018-Feb-15 05:00N 40°39' W 074°05'0 0.0
2018-Feb-15 04:27N 40°39' W 074°05'0 0.8
2018-Feb-15 04:00N 40°39' W 074°06'4 8.5
2018-Feb-15 03:29N 40°39' W 074°11'3 6.4
2018-Feb-15 03:00N 40°35' W 074°12'0 0.0
2018-Feb-15 02:30N 40°35' W 074°12'0 0.1
2018-Feb-15 02:00N 40°35' W 074°12'2 4.6
2018-Feb-15 01:29N 40°38' W 074°12'4 7.6
2018-Feb-15 01:00N 40°39' W 074°07'4 7.8
2018-Feb-15 00:30N 40°40' W 074°03'5 9.3
2018-Feb-15 00:00N 40°45' W 074°01'5 9.5
2018-Feb-14 23:30N 40°49' W 073°58'510.0
2018-Feb-14 23:00N 40°54' W 073°55'1 0.0
2018-Feb-12 20:10N 40°53' W 073°56'1 7.6
2018-Feb-12 20:00N 40°52' W 073°57'4 7.2
2018-Feb-12 19:30N 40°49' W 073°58'3 6.7
2018-Feb-12 19:00N 40°46' W 074°01'3 6.6
2018-Feb-12 18:30N 40°42' W 074°02'3 7.0
2018-Feb-12 18:00N 40°39' W 074°03'5 8.9
2018-Feb-12 17:28N 40°39' W 074°10'3 6.6
2018-Feb-12 17:00N 40°36' W 074°12'3 6.4
2018-Feb-12 16:30N 40°33' W 074°14'0 0.0
2018-Feb-11 09:50N 40°33' W 074°14'3 4.4
2018-Feb-11 09:06N 40°36' W 074°12'1 6.8
2018-Feb-11 09:00N 40°37' W 074°12'3 6.0
2018-Feb-11 08:30N 40°39' W 074°09'4 7.7
2018-Feb-11 08:01N 40°39' W 074°04'4 7.3
2018-Feb-11 07:30N 40°36' W 074°02'0 0.0
2018-Feb-11 07:00N 40°36' W 074°02'0 0.0
2018-Feb-11 06:30N 40°36' W 074°02'0 0.0
2018-Feb-11 06:00N 40°36' W 074°02'0 0.1
2018-Feb-11 05:30N 40°36' W 074°01'0 0.2
2018-Feb-11 05:00N 40°36' W 074°01'0 0.1
2018-Feb-11 04:30N 40°36' W 074°01'0 0.0
2018-Feb-11 04:00N 40°36' W 074°01'0 0.0
2018-Feb-11 03:30N 40°36' W 074°01'0 0.1
2018-Feb-11 03:00N 40°36' W 074°01'0 0.0
2018-Feb-11 02:30N 40°36' W 074°01'0 0.0
2018-Feb-11 02:00N 40°36' W 074°01'0 0.0
2018-Feb-11 01:27N 40°36' W 074°01'1 1.5
2018-Feb-11 01:00N 40°36' W 074°02'3 5.9
2018-Feb-11 00:30N 40°39' W 074°03'5 9.7
2018-Feb-11 00:00N 40°42' W 073°59'5 9.3
2018-Feb-10 23:30N 40°47' W 073°56'3 5.2
2018-Feb-10 22:59N 40°48' W 073°53'4 7.7
2018-Feb-10 22:24N 40°48' W 073°47'50 5.6
2018-Feb-10 13:32N 41°06' W 072°46'1 6.8
2018-Feb-10 13:25N 41°06' W 072°45'3 6.7
2018-Feb-10 13:00N 41°07' W 072°41'4 7.6
2018-Feb-10 12:30N 41°08' W 072°36'3 5.2
2018-Feb-10 12:00N 41°08' W 072°33'2 5.0
2018-Feb-10 11:30N 41°09' W 072°30'3 5.1
2018-Feb-10 11:00N 41°10' W 072°27'510.6
2018-Feb-10 10:30N 41°12' W 072°20'610.8
2018-Feb-10 09:55N 41°13' W 072°12'100 8.6
2018-Feb-09 22:19N 42°15' W 070°26'27 1.0
2018-Feb-08 18:30N 42°41' W 070°26'14 9.5
2018-Feb-08 17:00N 42°31' W 070°39'  
Track history (hours):
 
Tides and Currents Weather Stations Pressure Air Temp Water Temp Dewpoint Dewpoint Depression Visibility Wind Speed Wind Dir Waves Ship Positions

Morton S. Bouchard Jr.

Owner: Tug Morton S. Bouchard Jr. Corp., Melville, NY. More information available from US FCC via Universal Licensing System and Coast Guard Vessel Documentation Center.

Last reported at 2018-Feb-18 08:59 UTC. Time now 2018-Feb-18 09:14 UTC.
Position N 40°48' W 073°50'.

Length 156 m; draft 6.4 m.

MMSI: 367707480.

Date/timePositionNaut miles runAvg speedWind from/ knotsBaromVisibWave heightAir tempDewpointWater temp
2018-Feb-18 08:59N 40°48' W 073°50'2 4.6
2018-Feb-18 08:30N 40°49' W 073°47'0 0.0
2018-Feb-16 09:32N 40°49' W 073°47'1 9.2
2018-Feb-16 09:27N 40°48' W 073°47'4 9.3
2018-Feb-16 09:00N 40°48' W 073°53'3 6.6
2018-Feb-16 08:29N 40°46' W 073°57'3 6.3
2018-Feb-16 08:01N 40°44' W 073°58'3 6.1
2018-Feb-16 07:30N 40°41' W 074°01'2 4.8
2018-Feb-16 07:01N 40°39' W 074°03'0 0.1
2018-Feb-16 06:29N 40°39' W 074°03'0 0.1
2018-Feb-16 05:59N 40°39' W 074°03'0 0.1
2018-Feb-16 05:29N 40°39' W 074°03'0 0.0
2018-Feb-16 04:59N 40°39' W 074°03'0 0.0
2018-Feb-16 04:29N 40°39' W 074°03'0 0.0
2018-Feb-16 03:59N 40°39' W 074°03'0 0.9
2018-Feb-16 03:30N 40°39' W 074°03'5 9.6
2018-Feb-16 03:00N 40°39' W 074°09'3 6.4
2018-Feb-16 02:30N 40°36' W 074°12'1 1.6
2018-Feb-16 01:59N 40°35' W 074°12'0 0.0
2018-Feb-16 01:29N 40°35' W 074°12'3 5.3
2018-Feb-16 01:00N 40°38' W 074°12'3 5.1
2018-Feb-16 00:30N 40°39' W 074°09'1 0.3
2018-Feb-15 20:14N 40°39' W 074°07'1 1.7
2018-Feb-15 19:44N 40°39' W 074°06'0 0.0
2018-Feb-15 19:29N 40°39' W 074°06'0 0.0
2018-Feb-15 18:59N 40°39' W 074°06'0 0.0
2018-Feb-15 18:29N 40°39' W 074°06'0 0.0
2018-Feb-15 17:59N 40°39' W 074°06'0 0.0
2018-Feb-15 17:26N 40°39' W 074°06'0 0.0
2018-Feb-15 16:56N 40°39' W 074°06'0 0.0
2018-Feb-15 16:02N 40°39' W 074°06'0 0.0
2018-Feb-15 15:50N 40°39' W 074°06'0 0.0
2018-Feb-15 15:23N 40°39' W 074°06'0 0.0
2018-Feb-15 14:59N 40°39' W 074°06'0 0.0
2018-Feb-15 14:26N 40°39' W 074°06'0 0.0
2018-Feb-15 13:59N 40°39' W 074°06'0 0.0
2018-Feb-15 13:29N 40°39' W 074°06'0 0.0
2018-Feb-15 12:53N 40°39' W 074°06'0 0.0
2018-Feb-15 12:26N 40°39' W 074°06'0 0.0
2018-Feb-15 12:00N 40°39' W 074°06'0 0.6
2018-Feb-15 11:21N 40°39' W 074°05'0 0.0
2018-Feb-15 10:57N 40°39' W 074°05'0 0.0
2018-Feb-15 10:27N 40°39' W 074°05'0 0.0
2018-Feb-15 09:57N 40°39' W 074°05'0 0.0
2018-Feb-15 09:30N 40°39' W 074°05'0 0.0
2018-Feb-15 08:51N 40°39' W 074°05'0 0.0
2018-Feb-15 08:30N 40°39' W 074°05'0 0.0
2018-Feb-15 07:57N 40°39' W 074°05'0 0.0
2018-Feb-15 07:27N 40°39' W 074°05'0 0.0
2018-Feb-15 07:00N 40°39' W 074°05'0 0.0
2018-Feb-15 06:24N 40°39' W 074°05'0 0.0
2018-Feb-15 05:57N 40°39' W 074°05'0 0.0
2018-Feb-15 05:18N 40°39' W 074°05'0 0.0
2018-Feb-15 05:00N 40°39' W 074°05'0 0.0
2018-Feb-15 04:27N 40°39' W 074°05'0 0.8
2018-Feb-15 04:00N 40°39' W 074°06'4 8.5
2018-Feb-15 03:29N 40°39' W 074°11'3 6.4
2018-Feb-15 03:00N 40°35' W 074°12'0 0.0
2018-Feb-15 02:30N 40°35' W 074°12'0 0.1
2018-Feb-15 02:00N 40°35' W 074°12'2 4.6
2018-Feb-15 01:29N 40°38' W 074°12'4 7.6
2018-Feb-15 01:00N 40°39' W 074°07'4 7.8
2018-Feb-15 00:30N 40°40' W 074°03'5 9.3
2018-Feb-15 00:00N 40°45' W 074°01'5 9.5
2018-Feb-14 23:30N 40°49' W 073°58'510.0
2018-Feb-14 23:00N 40°54' W 073°55'1 0.0
2018-Feb-12 20:10N 40°53' W 073°56'1 7.6
2018-Feb-12 20:00N 40°52' W 073°57'4 7.2
2018-Feb-12 19:30N 40°49' W 073°58'3 6.7
2018-Feb-12 19:00N 40°46' W 074°01'3 6.6
2018-Feb-12 18:30N 40°42' W 074°02'3 7.0
2018-Feb-12 18:00N 40°39' W 074°03'5 8.9
2018-Feb-12 17:28N 40°39' W 074°10'3 6.6
2018-Feb-12 17:00N 40°36' W 074°12'3 6.4
2018-Feb-12 16:30N 40°33' W 074°14'0 0.0
2018-Feb-11 09:50N 40°33' W 074°14'3 4.4
2018-Feb-11 09:06N 40°36' W 074°12'1 6.8
2018-Feb-11 09:00N 40°37' W 074°12'3 6.0
2018-Feb-11 08:30N 40°39' W 074°09'4 7.7
2018-Feb-11 08:01N 40°39' W 074°04'4 7.3
2018-Feb-11 07:30N 40°36' W 074°02'0 0.0
2018-Feb-11 07:00N 40°36' W 074°02'0 0.0
2018-Feb-11 06:30N 40°36' W 074°02'0 0.0
2018-Feb-11 06:00N 40°36' W 074°02'0 0.1
2018-Feb-11 05:30N 40°36' W 074°01'0 0.2
2018-Feb-11 05:00N 40°36' W 074°01'0 0.1
2018-Feb-11 04:30N 40°36' W 074°01'0 0.0
2018-Feb-11 04:00N 40°36' W 074°01'0 0.0
2018-Feb-11 03:30N 40°36' W 074°01'0 0.1
2018-Feb-11 03:00N 40°36' W 074°01'0 0.0
2018-Feb-11 02:30N 40°36' W 074°01'0 0.0
2018-Feb-11 02:00N 40°36' W 074°01'0 0.0
2018-Feb-11 01:27N 40°36' W 074°01'1 1.5
2018-Feb-11 01:00N 40°36' W 074°02'3 5.9
2018-Feb-11 00:30N 40°39' W 074°03'5 9.7
2018-Feb-11 00:00N 40°42' W 073°59'5 9.3
2018-Feb-10 23:30N 40°47' W 073°56'3 5.2
2018-Feb-10 22:59N 40°48' W 073°53'4 7.7
2018-Feb-10 22:24N 40°48' W 073°47'50 5.6
2018-Feb-10 13:32N 41°06' W 072°46'1 6.8
2018-Feb-10 13:25N 41°06' W 072°45'3 6.7
2018-Feb-10 13:00N 41°07' W 072°41'4 7.6
2018-Feb-10 12:30N 41°08' W 072°36'3 5.2
2018-Feb-10 12:00N 41°08' W 072°33'2 5.0
2018-Feb-10 11:30N 41°09' W 072°30'3 5.1
2018-Feb-10 11:00N 41°10' W 072°27'510.6
2018-Feb-10 10:30N 41°12' W 072°20'610.8
2018-Feb-10 09:55N 41°13' W 072°12'100 8.6
2018-Feb-09 22:19N 42°15' W 070°26'27 1.0
2018-Feb-08 18:30N 42°41' W 070°26'14 9.5
2018-Feb-08 17:00N 42°31' W 070°39'  

Dump ship's entire track history